KDWU

Ashland Regional Airport

Ashland, Kentucky, USA
METAR KDWU 210356Z AUTO 09003KT 10SM FEW020 OVC034 04/01 A3016 RMK AO2 SLP218 T00390011 401171050
Observed Flight Rules
Jan-21 @ 03:56 UTC (41 minutes ago) Visual Flight Rules
Wind Visibility Clouds
90° at 3 knots 10 miles
  • Few at 2,000' AGL
  • Overcast at 3,400' AGL
Temperatures Readings
Current 4°C / 39°F
Dewpoint 1°C / 34°F
Humidity 81%
Altimeter 30.16" Hg
Pressure 1021.8 hPa
Elevation 166
METAR KDWU 210356Z AUTO 09003KT 10SM FEW020 OVC034 04/01 A3016 RMK AO2 SLP218 T00390011 401171050
Observed Flight Rules
Jan-21 @ 03:56 UTC
(41 minutes ago)
VFR
Wind Visibility
90° at 3 knots 10 miles
Clouds
  • Few at 2,000' AGL
  • Overcast at 3,400' AGL
Temperature Dewpoint
4°C / 39°F 1°C / 34°F
Humidity Altimeter Pressure
81% 30.16" Hg 1021.8 hPa